sensor_id;sensor_type;location;lat;lon;timestamp;temperature;humidity
61591;DHT22;57639;52.410;-1.966;2022-07-29T00:02:29;21.10;56.80
61591;DHT22;57639;52.410;-1.966;2022-07-29T00:05:38;21.10;56.70
61591;DHT22;57639;52.410;-1.966;2022-07-29T00:08:44;21.10;56.70
61591;DHT22;57639;52.410;-1.966;2022-07-29T00:11:52;21.10;56.70
61591;DHT22;57639;52.410;-1.966;2022-07-29T00:15:00;21.10;56.70
61591;DHT22;57639;52.410;-1.966;2022-07-29T00:18:08;21.10;56.70
61591;DHT22;57639;52.410;-1.966;2022-07-29T00:21:13;21.10;56.60
61591;DHT22;57639;52.410;-1.966;2022-07-29T00:24:21;21.10;56.60
61591;DHT22;57639;52.410;-1.966;2022-07-29T00:27:26;21.10;56.60
61591;DHT22;57639;52.410;-1.966;2022-07-29T00:30:37;21.10;56.50
61591;DHT22;57639;52.410;-1.966;2022-07-29T00:33:45;21.10;56.50
61591;DHT22;57639;52.410;-1.966;2022-07-29T00:36:52;21.00;56.50
61591;DHT22;57639;52.410;-1.966;2022-07-29T00:39:55;21.00;56.50
61591;DHT22;57639;52.410;-1.966;2022-07-29T00:43:03;21.00;56.50
61591;DHT22;57639;52.410;-1.966;2022-07-29T00:46:11;21.00;56.40
61591;DHT22;57639;52.410;-1.966;2022-07-29T00:49:19;21.00;56.30
61591;DHT22;57639;52.410;-1.966;2022-07-29T00:52:25;21.00;56.30
61591;DHT22;57639;52.410;-1.966;2022-07-29T00:55:33;21.00;56.20
61591;DHT22;57639;52.410;-1.966;2022-07-29T00:58:39;21.00;56.20
61591;DHT22;57639;52.410;-1.966;2022-07-29T01:01:50;21.00;56.20
61591;DHT22;57639;52.410;-1.966;2022-07-29T01:04:56;21.00;56.20
61591;DHT22;57639;52.410;-1.966;2022-07-29T01:08:05;21.00;56.20
61591;DHT22;57639;52.410;-1.966;2022-07-29T01:11:11;21.00;56.10
61591;DHT22;57639;52.410;-1.966;2022-07-29T01:14:21;21.00;56.00
61591;DHT22;57639;52.410;-1.966;2022-07-29T01:17:33;21.00;56.10
61591;DHT22;57639;52.410;-1.966;2022-07-29T01:21:21;21.00;56.10
61591;DHT22;57639;52.410;-1.966;2022-07-29T01:24:38;21.00;56.10
61591;DHT22;57639;52.410;-1.966;2022-07-29T01:28:01;21.00;56.00
61591;DHT22;57639;52.410;-1.966;2022-07-29T01:31:20;20.90;56.00
61591;DHT22;57639;52.410;-1.966;2022-07-29T01:34:35;21.00;56.00
61591;DHT22;57639;52.410;-1.966;2022-07-29T01:37:46;21.00;56.00
61591;DHT22;57639;52.410;-1.966;2022-07-29T01:41:03;20.90;56.00
61591;DHT22;57639;52.410;-1.966;2022-07-29T01:44:13;20.90;56.00
61591;DHT22;57639;52.410;-1.966;2022-07-29T01:47:28;20.90;55.90
61591;DHT22;57639;52.410;-1.966;2022-07-29T01:50:44;20.90;55.90
61591;DHT22;57639;52.410;-1.966;2022-07-29T01:53:57;20.90;55.80
61591;DHT22;57639;52.410;-1.966;2022-07-29T01:57:06;20.90;55.80
61591;DHT22;57639;52.410;-1.966;2022-07-29T02:00:15;20.90;55.80
61591;DHT22;57639;52.410;-1.966;2022-07-29T02:03:26;20.90;55.70
61591;DHT22;57639;52.410;-1.966;2022-07-29T02:06:35;20.90;55.70
61591;DHT22;57639;52.410;-1.966;2022-07-29T02:09:42;20.90;55.70
61591;DHT22;57639;52.410;-1.966;2022-07-29T02:12:51;20.90;55.70
61591;DHT22;57639;52.410;-1.966;2022-07-29T02:15:58;20.90;55.70
61591;DHT22;57639;52.410;-1.966;2022-07-29T02:19:10;20.90;55.70
61591;DHT22;57639;52.410;-1.966;2022-07-29T02:22:18;20.90;55.70
61591;DHT22;57639;52.410;-1.966;2022-07-29T02:25:28;20.90;55.60
61591;DHT22;57639;52.410;-1.966;2022-07-29T02:28:40;20.90;55.70
61591;DHT22;57639;52.410;-1.966;2022-07-29T02:31:49;20.90;55.70
61591;DHT22;57639;52.410;-1.966;2022-07-29T02:34:58;20.80;55.70
61591;DHT22;57639;52.410;-1.966;2022-07-29T02:38:07;20.90;55.70
61591;DHT22;57639;52.410;-1.966;2022-07-29T02:41:33;20.90;55.70
61591;DHT22;57639;52.410;-1.966;2022-07-29T02:44:42;20.90;55.70
61591;DHT22;57639;52.410;-1.966;2022-07-29T02:47:49;20.90;55.70
61591;DHT22;57639;52.410;-1.966;2022-07-29T02:51:05;20.90;55.60
61591;DHT22;57639;52.410;-1.966;2022-07-29T02:54:38;20.90;55.60
61591;DHT22;57639;52.410;-1.966;2022-07-29T02:57:49;20.90;55.70
61591;DHT22;57639;52.410;-1.966;2022-07-29T03:00:58;20.90;55.60
61591;DHT22;57639;52.410;-1.966;2022-07-29T03:04:08;20.80;55.60
61591;DHT22;57639;52.410;-1.966;2022-07-29T03:07:19;20.80;55.60
61591;DHT22;57639;52.410;-1.966;2022-07-29T03:10:27;20.80;55.50
61591;DHT22;57639;52.410;-1.966;2022-07-29T03:13:35;20.80;55.50
61591;DHT22;57639;52.410;-1.966;2022-07-29T03:17:15;20.80;55.50
61591;DHT22;57639;52.410;-1.966;2022-07-29T03:20:25;20.80;55.50
61591;DHT22;57639;52.410;-1.966;2022-07-29T03:23:35;20.80;55.50
61591;DHT22;57639;52.410;-1.966;2022-07-29T03:26:41;20.80;55.50
61591;DHT22;57639;52.410;-1.966;2022-07-29T03:29:48;20.80;55.60
61591;DHT22;57639;52.410;-1.966;2022-07-29T03:32:54;20.80;55.50
61591;DHT22;57639;52.410;-1.966;2022-07-29T03:36:02;20.80;55.60
61591;DHT22;57639;52.410;-1.966;2022-07-29T03:39:11;20.80;55.50
61591;DHT22;57639;52.410;-1.966;2022-07-29T03:42:21;20.80;55.50
61591;DHT22;57639;52.410;-1.966;2022-07-29T03:45:34;20.80;55.60
61591;DHT22;57639;52.410;-1.966;2022-07-29T03:48:46;20.80;55.50
61591;DHT22;57639;52.410;-1.966;2022-07-29T03:51:54;20.80;55.50
61591;DHT22;57639;52.410;-1.966;2022-07-29T03:55:06;20.80;55.50
61591;DHT22;57639;52.410;-1.966;2022-07-29T03:58:13;20.80;55.60
61591;DHT22;57639;52.410;-1.966;2022-07-29T04:01:21;20.80;55.50
61591;DHT22;57639;52.410;-1.966;2022-07-29T04:04:27;20.80;55.50
61591;DHT22;57639;52.410;-1.966;2022-07-29T04:07:39;20.80;55.50
61591;DHT22;57639;52.410;-1.966;2022-07-29T04:10:47;20.80;55.40
61591;DHT22;57639;52.410;-1.966;2022-07-29T04:13:56;20.80;55.40
61591;DHT22;57639;52.410;-1.966;2022-07-29T04:17:02;20.80;55.40
61591;DHT22;57639;52.410;-1.966;2022-07-29T04:20:11;20.80;55.30
61591;DHT22;57639;52.410;-1.966;2022-07-29T04:23:18;20.80;55.30
61591;DHT22;57639;52.410;-1.966;2022-07-29T04:26:28;20.80;55.30
61591;DHT22;57639;52.410;-1.966;2022-07-29T04:29:34;20.80;55.30
61591;DHT22;57639;52.410;-1.966;2022-07-29T04:33:00;20.80;55.30
61591;DHT22;57639;52.410;-1.966;2022-07-29T04:36:06;20.80;55.30
61591;DHT22;57639;52.410;-1.966;2022-07-29T04:39:32;20.80;55.20
61591;DHT22;57639;52.410;-1.966;2022-07-29T04:42:41;20.70;55.30
61591;DHT22;57639;52.410;-1.966;2022-07-29T04:45:51;20.70;55.20
61591;DHT22;57639;52.410;-1.966;2022-07-29T04:48:57;20.80;55.20
61591;DHT22;57639;52.410;-1.966;2022-07-29T04:52:05;20.70;55.20
61591;DHT22;57639;52.410;-1.966;2022-07-29T04:55:11;20.70;55.20
61591;DHT22;57639;52.410;-1.966;2022-07-29T04:58:21;20.70;55.30
61591;DHT22;57639;52.410;-1.966;2022-07-29T05:01:28;20.70;55.20
61591;DHT22;57639;52.410;-1.966;2022-07-29T05:04:36;20.70;55.30
61591;DHT22;57639;52.410;-1.966;2022-07-29T05:07:42;20.70;55.30
61591;DHT22;57639;52.410;-1.966;2022-07-29T05:10:50;20.70;55.30
61591;DHT22;57639;52.410;-1.966;2022-07-29T05:13:58;20.70;55.30
61591;DHT22;57639;52.410;-1.966;2022-07-29T05:17:06;20.70;55.20
61591;DHT22;57639;52.410;-1.966;2022-07-29T05:20:12;20.70;55.30
61591;DHT22;57639;52.410;-1.966;2022-07-29T05:23:19;20.70;55.30
61591;DHT22;57639;52.410;-1.966;2022-07-29T05:26:25;20.70;55.30
61591;DHT22;57639;52.410;-1.966;2022-07-29T05:29:35;20.70;55.30
61591;DHT22;57639;52.410;-1.966;2022-07-29T05:32:46;20.70;55.30
61591;DHT22;57639;52.410;-1.966;2022-07-29T05:35:54;20.70;55.30
61591;DHT22;57639;52.410;-1.966;2022-07-29T05:39:02;20.70;55.40
61591;DHT22;57639;52.410;-1.966;2022-07-29T05:42:09;20.70;55.40
61591;DHT22;57639;52.410;-1.966;2022-07-29T05:45:18;20.70;55.30
61591;DHT22;57639;52.410;-1.966;2022-07-29T05:48:26;20.70;55.30
61591;DHT22;57639;52.410;-1.966;2022-07-29T05:51:31;20.70;55.30
61591;DHT22;57639;52.410;-1.966;2022-07-29T05:54:39;20.70;55.30
61591;DHT22;57639;52.410;-1.966;2022-07-29T05:57:45;20.70;55.30
61591;DHT22;57639;52.410;-1.966;2022-07-29T06:00:55;20.70;55.30
61591;DHT22;57639;52.410;-1.966;2022-07-29T06:04:02;20.70;55.40
61591;DHT22;57639;52.410;-1.966;2022-07-29T06:07:10;20.70;55.40
61591;DHT22;57639;52.410;-1.966;2022-07-29T06:10:16;20.60;55.50
61591;DHT22;57639;52.410;-1.966;2022-07-29T06:13:29;20.70;55.50
61591;DHT22;57639;52.410;-1.966;2022-07-29T06:16:37;20.70;55.50
61591;DHT22;57639;52.410;-1.966;2022-07-29T06:19:45;20.70;55.40
61591;DHT22;57639;52.410;-1.966;2022-07-29T06:22:51;20.70;55.50
61591;DHT22;57639;52.410;-1.966;2022-07-29T06:25:58;20.70;55.40
61591;DHT22;57639;52.410;-1.966;2022-07-29T06:29:04;20.70;55.40
61591;DHT22;57639;52.410;-1.966;2022-07-29T06:32:15;20.70;55.40
61591;DHT22;57639;52.410;-1.966;2022-07-29T06:35:24;20.70;55.40
61591;DHT22;57639;52.410;-1.966;2022-07-29T06:38:45;20.70;55.40
61591;DHT22;57639;52.410;-1.966;2022-07-29T06:41:53;20.70;55.50
61591;DHT22;57639;52.410;-1.966;2022-07-29T06:45:00;20.70;55.50
61591;DHT22;57639;52.410;-1.966;2022-07-29T06:48:13;20.70;55.40
61591;DHT22;57639;52.410;-1.966;2022-07-29T06:51:21;20.70;55.40
61591;DHT22;57639;52.410;-1.966;2022-07-29T06:54:29;20.70;55.60
61591;DHT22;57639;52.410;-1.966;2022-07-29T06:57:35;20.70;55.50
61591;DHT22;57639;52.410;-1.966;2022-07-29T07:00:42;20.80;55.80
61591;DHT22;57639;52.410;-1.966;2022-07-29T07:03:51;20.80;55.60
61591;DHT22;57639;52.410;-1.966;2022-07-29T07:06:59;20.90;55.70
61591;DHT22;57639;52.410;-1.966;2022-07-29T07:10:05;20.80;55.80
61591;DHT22;57639;52.410;-1.966;2022-07-29T07:13:16;20.90;55.80
61591;DHT22;57639;52.410;-1.966;2022-07-29T07:16:25;20.80;56.10
61591;DHT22;57639;52.410;-1.966;2022-07-29T07:19:35;20.90;56.40
61591;DHT22;57639;52.410;-1.966;2022-07-29T07:22:41;20.90;56.30
61591;DHT22;57639;52.410;-1.966;2022-07-29T07:25:49;20.90;56.50
61591;DHT22;57639;52.410;-1.966;2022-07-29T07:28:55;21.00;56.60
61591;DHT22;57639;52.410;-1.966;2022-07-29T07:32:05;21.00;56.70
61591;DHT22;57639;52.410;-1.966;2022-07-29T07:35:13;21.00;56.80
61591;DHT22;57639;52.410;-1.966;2022-07-29T07:38:21;21.00;56.90
61591;DHT22;57639;52.410;-1.966;2022-07-29T07:41:32;21.00;56.80
61591;DHT22;57639;52.410;-1.966;2022-07-29T07:44:40;21.10;56.70
61591;DHT22;57639;52.410;-1.966;2022-07-29T07:48:09;21.10;56.70
61591;DHT22;57639;52.410;-1.966;2022-07-29T07:51:18;21.10;56.50
61591;DHT22;57639;52.410;-1.966;2022-07-29T07:54:26;21.10;56.50
61591;DHT22;57639;52.410;-1.966;2022-07-29T07:57:31;21.10;56.50
61591;DHT22;57639;52.410;-1.966;2022-07-29T08:00:39;21.10;56.50
61591;DHT22;57639;52.410;-1.966;2022-07-29T08:03:45;21.10;56.40
61591;DHT22;57639;52.410;-1.966;2022-07-29T08:06:56;21.10;56.30
61591;DHT22;57639;52.410;-1.966;2022-07-29T08:10:03;21.10;56.20
61591;DHT22;57639;52.410;-1.966;2022-07-29T08:13:14;21.10;56.20
61591;DHT22;57639;52.410;-1.966;2022-07-29T08:16:22;21.10;56.20
61591;DHT22;57639;52.410;-1.966;2022-07-29T08:19:30;21.10;56.20
61591;DHT22;57639;52.410;-1.966;2022-07-29T08:22:45;21.10;55.90
61591;DHT22;57639;52.410;-1.966;2022-07-29T08:25:56;21.20;56.00
61591;DHT22;57639;52.410;-1.966;2022-07-29T08:29:08;21.10;56.00
61591;DHT22;57639;52.410;-1.966;2022-07-29T08:32:28;21.10;56.10
61591;DHT22;57639;52.410;-1.966;2022-07-29T08:35:57;21.10;56.10
61591;DHT22;57639;52.410;-1.966;2022-07-29T08:39:12;21.10;56.20
61591;DHT22;57639;52.410;-1.966;2022-07-29T08:42:31;21.10;56.10
61591;DHT22;57639;52.410;-1.966;2022-07-29T08:45:50;21.20;56.10
61591;DHT22;57639;52.410;-1.966;2022-07-29T08:49:12;21.20;56.10
61591;DHT22;57639;52.410;-1.966;2022-07-29T08:52:53;21.10;56.10
61591;DHT22;57639;52.410;-1.966;2022-07-29T08:56:42;21.10;56.00
61591;DHT22;57639;52.410;-1.966;2022-07-29T08:59:52;21.10;56.30
61591;DHT22;57639;52.410;-1.966;2022-07-29T09:03:20;21.20;56.20
61591;DHT22;57639;52.410;-1.966;2022-07-29T09:06:37;21.10;56.10
61591;DHT22;57639;52.410;-1.966;2022-07-29T09:09:47;21.20;56.10
61591;DHT22;57639;52.410;-1.966;2022-07-29T09:12:58;21.20;56.10
61591;DHT22;57639;52.410;-1.966;2022-07-29T09:16:04;21.20;56.00
61591;DHT22;57639;52.410;-1.966;2022-07-29T09:19:20;21.30;56.00
61591;DHT22;57639;52.410;-1.966;2022-07-29T09:22:29;21.30;55.90
61591;DHT22;57639;52.410;-1.966;2022-07-29T09:25:44;21.30;55.80
61591;DHT22;57639;52.410;-1.966;2022-07-29T09:28:53;21.30;55.80
61591;DHT22;57639;52.410;-1.966;2022-07-29T09:32:00;21.30;55.80
61591;DHT22;57639;52.410;-1.966;2022-07-29T09:35:18;21.30;55.70
61591;DHT22;57639;52.410;-1.966;2022-07-29T09:38:26;21.30;55.60
61591;DHT22;57639;52.410;-1.966;2022-07-29T09:41:48;21.30;55.70
61591;DHT22;57639;52.410;-1.966;2022-07-29T09:45:01;21.30;55.70
61591;DHT22;57639;52.410;-1.966;2022-07-29T09:48:15;21.30;55.70
61591;DHT22;57639;52.410;-1.966;2022-07-29T09:51:23;21.30;55.70
61591;DHT22;57639;52.410;-1.966;2022-07-29T09:54:39;21.30;55.70
61591;DHT22;57639;52.410;-1.966;2022-07-29T09:57:47;21.40;55.70
61591;DHT22;57639;52.410;-1.966;2022-07-29T10:00:56;21.40;55.70
61591;DHT22;57639;52.410;-1.966;2022-07-29T10:04:04;21.40;55.60
61591;DHT22;57639;52.410;-1.966;2022-07-29T10:07:16;21.40;55.60
61591;DHT22;57639;52.410;-1.966;2022-07-29T10:10:28;21.40;55.60
61591;DHT22;57639;52.410;-1.966;2022-07-29T10:13:36;21.50;55.70
61591;DHT22;57639;52.410;-1.966;2022-07-29T10:16:48;21.50;55.70
61591;DHT22;57639;52.410;-1.966;2022-07-29T10:19:59;21.50;55.70
61591;DHT22;57639;52.410;-1.966;2022-07-29T10:23:07;21.50;55.80
61591;DHT22;57639;52.410;-1.966;2022-07-29T10:26:15;21.50;55.80
61591;DHT22;57639;52.410;-1.966;2022-07-29T10:29:25;21.50;55.80
61591;DHT22;57639;52.410;-1.966;2022-07-29T10:33:05;21.50;55.80
61591;DHT22;57639;52.410;-1.966;2022-07-29T10:36:32;21.50;55.90
61591;DHT22;57639;52.410;-1.966;2022-07-29T10:39:56;21.50;56.10
61591;DHT22;57639;52.410;-1.966;2022-07-29T10:43:30;21.50;56.30
61591;DHT22;57639;52.410;-1.966;2022-07-29T10:46:40;21.50;56.40
61591;DHT22;57639;52.410;-1.966;2022-07-29T10:49:58;21.50;56.40
61591;DHT22;57639;52.410;-1.966;2022-07-29T10:53:05;21.60;56.40
61591;DHT22;57639;52.410;-1.966;2022-07-29T10:56:24;21.50;56.40
61591;DHT22;57639;52.410;-1.966;2022-07-29T10:59:33;21.50;56.60
61591;DHT22;57639;52.410;-1.966;2022-07-29T11:02:43;21.50;56.50
61591;DHT22;57639;52.410;-1.966;2022-07-29T11:05:56;21.50;56.50
61591;DHT22;57639;52.410;-1.966;2022-07-29T11:09:16;21.60;56.60
61591;DHT22;57639;52.410;-1.966;2022-07-29T11:12:48;21.60;56.50
61591;DHT22;57639;52.410;-1.966;2022-07-29T11:15:57;21.50;56.60
61591;DHT22;57639;52.410;-1.966;2022-07-29T11:19:21;21.60;56.60
61591;DHT22;57639;52.410;-1.966;2022-07-29T11:22:37;21.60;56.60
61591;DHT22;57639;52.410;-1.966;2022-07-29T11:26:13;21.70;57.10
61591;DHT22;57639;52.410;-1.966;2022-07-29T11:29:26;21.70;57.30
61591;DHT22;57639;52.410;-1.966;2022-07-29T11:32:42;21.70;57.30
61591;DHT22;57639;52.410;-1.966;2022-07-29T11:36:07;21.80;57.30
61591;DHT22;57639;52.410;-1.966;2022-07-29T11:39:37;21.80;57.30
61591;DHT22;57639;52.410;-1.966;2022-07-29T11:42:52;21.80;57.20
61591;DHT22;57639;52.410;-1.966;2022-07-29T11:46:01;21.80;57.40
61591;DHT22;57639;52.410;-1.966;2022-07-29T11:49:13;21.80;57.70
61591;DHT22;57639;52.410;-1.966;2022-07-29T11:52:35;21.80;58.00
61591;DHT22;57639;52.410;-1.966;2022-07-29T11:55:56;21.90;58.00
61591;DHT22;57639;52.410;-1.966;2022-07-29T11:59:24;21.90;57.90
61591;DHT22;57639;52.410;-1.966;2022-07-29T12:02:39;21.90;58.00
61591;DHT22;57639;52.410;-1.966;2022-07-29T12:05:49;21.90;58.10
61591;DHT22;57639;52.410;-1.966;2022-07-29T12:09:00;21.90;58.20
61591;DHT22;57639;52.410;-1.966;2022-07-29T12:12:19;21.90;58.10
61591;DHT22;57639;52.410;-1.966;2022-07-29T12:15:27;21.90;58.10
61591;DHT22;57639;52.410;-1.966;2022-07-29T12:18:58;22.00;57.90
61591;DHT22;57639;52.410;-1.966;2022-07-29T12:22:07;21.90;57.90
61591;DHT22;57639;52.410;-1.966;2022-07-29T12:25:14;22.00;57.60
61591;DHT22;57639;52.410;-1.966;2022-07-29T12:28:41;22.00;57.70
61591;DHT22;57639;52.410;-1.966;2022-07-29T12:31:52;22.00;57.40
61591;DHT22;57639;52.410;-1.966;2022-07-29T12:35:05;22.00;57.20
61591;DHT22;57639;52.410;-1.966;2022-07-29T12:38:11;22.00;57.30
61591;DHT22;57639;52.410;-1.966;2022-07-29T12:41:19;22.00;57.40
61591;DHT22;57639;52.410;-1.966;2022-07-29T12:44:43;22.00;57.30
61591;DHT22;57639;52.410;-1.966;2022-07-29T12:47:51;22.00;57.20
61591;DHT22;57639;52.410;-1.966;2022-07-29T12:50:59;22.00;57.10
61591;DHT22;57639;52.410;-1.966;2022-07-29T12:54:08;22.10;57.00
61591;DHT22;57639;52.410;-1.966;2022-07-29T12:57:15;22.10;56.90
61591;DHT22;57639;52.410;-1.966;2022-07-29T13:00:26;22.10;56.90
61591;DHT22;57639;52.410;-1.966;2022-07-29T13:03:47;22.10;56.90
61591;DHT22;57639;52.410;-1.966;2022-07-29T13:07:02;22.10;56.90
61591;DHT22;57639;52.410;-1.966;2022-07-29T13:10:13;22.10;56.80
61591;DHT22;57639;52.410;-1.966;2022-07-29T13:13:27;22.10;56.90
61591;DHT22;57639;52.410;-1.966;2022-07-29T13:16:36;22.10;56.90
61591;DHT22;57639;52.410;-1.966;2022-07-29T13:19:46;22.10;56.90
61591;DHT22;57639;52.410;-1.966;2022-07-29T13:22:52;22.10;56.90
61591;DHT22;57639;52.410;-1.966;2022-07-29T13:26:05;22.10;57.20
61591;DHT22;57639;52.410;-1.966;2022-07-29T13:29:11;22.10;57.40
61591;DHT22;57639;52.410;-1.966;2022-07-29T13:32:22;22.10;57.30
61591;DHT22;57639;52.410;-1.966;2022-07-29T13:35:29;22.10;57.30
61591;DHT22;57639;52.410;-1.966;2022-07-29T13:38:43;22.10;57.20
61591;DHT22;57639;52.410;-1.966;2022-07-29T13:41:51;22.10;57.10
61591;DHT22;57639;52.410;-1.966;2022-07-29T13:45:01;22.10;57.00
61591;DHT22;57639;52.410;-1.966;2022-07-29T13:48:10;22.10;57.00
61591;DHT22;57639;52.410;-1.966;2022-07-29T13:51:17;22.10;57.00
61591;DHT22;57639;52.410;-1.966;2022-07-29T13:54:23;22.10;57.00
61591;DHT22;57639;52.410;-1.966;2022-07-29T13:57:31;22.10;57.00
61591;DHT22;57639;52.410;-1.966;2022-07-29T14:00:36;22.10;57.00
61591;DHT22;57639;52.410;-1.966;2022-07-29T14:03:47;22.10;57.00
61591;DHT22;57639;52.410;-1.966;2022-07-29T14:06:52;22.10;57.00
61591;DHT22;57639;52.410;-1.966;2022-07-29T14:10:00;22.10;57.00
61591;DHT22;57639;52.410;-1.966;2022-07-29T14:13:06;22.10;57.00
61591;DHT22;57639;52.410;-1.966;2022-07-29T14:16:28;22.10;57.00
61591;DHT22;57639;52.410;-1.966;2022-07-29T14:19:37;22.10;57.00
61591;DHT22;57639;52.410;-1.966;2022-07-29T14:22:44;22.10;57.00
61591;DHT22;57639;52.410;-1.966;2022-07-29T14:25:51;22.10;57.00
61591;DHT22;57639;52.410;-1.966;2022-07-29T14:28:59;22.10;57.00
61591;DHT22;57639;52.410;-1.966;2022-07-29T14:32:06;22.10;57.00
61591;DHT22;57639;52.410;-1.966;2022-07-29T14:35:17;22.10;57.00
61591;DHT22;57639;52.410;-1.966;2022-07-29T14:38:23;22.10;57.00
61591;DHT22;57639;52.410;-1.966;2022-07-29T14:41:30;22.10;57.00
61591;DHT22;57639;52.410;-1.966;2022-07-29T14:44:36;22.10;57.00
61591;DHT22;57639;52.410;-1.966;2022-07-29T14:47:44;22.10;57.00
61591;DHT22;57639;52.410;-1.966;2022-07-29T14:50:54;22.10;57.00
61591;DHT22;57639;52.410;-1.966;2022-07-29T14:54:07;22.10;57.00
61591;DHT22;57639;52.410;-1.966;2022-07-29T14:57:13;22.10;57.00
61591;DHT22;57639;52.410;-1.966;2022-07-29T15:00:21;22.10;57.00
61591;DHT22;57639;52.410;-1.966;2022-07-29T15:03:27;22.10;57.00
61591;DHT22;57639;52.410;-1.966;2022-07-29T15:06:39;22.10;57.10
61591;DHT22;57639;52.410;-1.966;2022-07-29T15:09:45;22.10;57.00
61591;DHT22;57639;52.410;-1.966;2022-07-29T15:12:53;22.10;57.00
61591;DHT22;57639;52.410;-1.966;2022-07-29T15:15:58;22.10;57.00
61591;DHT22;57639;52.410;-1.966;2022-07-29T15:19:06;22.10;57.00
61591;DHT22;57639;52.410;-1.966;2022-07-29T15:22:15;22.10;57.00
61591;DHT22;57639;52.410;-1.966;2022-07-29T15:25:23;22.10;57.10
61591;DHT22;57639;52.410;-1.966;2022-07-29T15:28:29;22.10;57.20
61591;DHT22;57639;52.410;-1.966;2022-07-29T15:31:37;22.20;57.90
61591;DHT22;57639;52.410;-1.966;2022-07-29T15:34:42;22.20;58.10
61591;DHT22;57639;52.410;-1.966;2022-07-29T15:37:53;22.20;58.30
61591;DHT22;57639;52.410;-1.966;2022-07-29T15:40:58;22.20;58.40
61591;DHT22;57639;52.410;-1.966;2022-07-29T15:44:06;22.20;58.50
61591;DHT22;57639;52.410;-1.966;2022-07-29T15:47:12;22.30;58.80
61591;DHT22;57639;52.410;-1.966;2022-07-29T15:50:20;22.20;58.90
61591;DHT22;57639;52.410;-1.966;2022-07-29T15:53:28;22.30;58.90
61591;DHT22;57639;52.410;-1.966;2022-07-29T15:56:38;22.30;58.90
61591;DHT22;57639;52.410;-1.966;2022-07-29T15:59:44;22.30;58.90
61591;DHT22;57639;52.410;-1.966;2022-07-29T16:02:52;22.30;58.90
61591;DHT22;57639;52.410;-1.966;2022-07-29T16:05:58;22.30;58.80
61591;DHT22;57639;52.410;-1.966;2022-07-29T16:09:08;22.30;58.70
61591;DHT22;57639;52.410;-1.966;2022-07-29T16:12:14;22.30;58.70
61591;DHT22;57639;52.410;-1.966;2022-07-29T16:15:22;22.30;58.60
61591;DHT22;57639;52.410;-1.966;2022-07-29T16:18:28;22.30;58.70
61591;DHT22;57639;52.410;-1.966;2022-07-29T16:21:38;22.30;58.80
61591;DHT22;57639;52.410;-1.966;2022-07-29T16:24:49;22.30;58.70
61591;DHT22;57639;52.410;-1.966;2022-07-29T16:27:58;22.40;58.60
61591;DHT22;57639;52.410;-1.966;2022-07-29T16:31:03;22.30;58.60
61591;DHT22;57639;52.410;-1.966;2022-07-29T16:34:12;22.40;58.50
61591;DHT22;57639;52.410;-1.966;2022-07-29T16:37:17;22.40;58.40
61591;DHT22;57639;52.410;-1.966;2022-07-29T16:40:37;22.30;58.30
61591;DHT22;57639;52.410;-1.966;2022-07-29T16:43:45;22.40;58.20
61591;DHT22;57639;52.410;-1.966;2022-07-29T16:46:57;22.40;58.20
61591;DHT22;57639;52.410;-1.966;2022-07-29T16:50:07;22.40;58.20
61591;DHT22;57639;52.410;-1.966;2022-07-29T16:53:15;22.40;58.10
61591;DHT22;57639;52.410;-1.966;2022-07-29T16:56:23;22.40;58.10
61591;DHT22;57639;52.410;-1.966;2022-07-29T16:59:31;22.40;58.10
61591;DHT22;57639;52.410;-1.966;2022-07-29T17:02:44;22.30;58.00
61591;DHT22;57639;52.410;-1.966;2022-07-29T17:05:55;22.40;58.00
61591;DHT22;57639;52.410;-1.966;2022-07-29T17:09:01;22.40;58.20
61591;DHT22;57639;52.410;-1.966;2022-07-29T17:12:11;22.40;58.30
61591;DHT22;57639;52.410;-1.966;2022-07-29T17:15:17;22.30;58.60
61591;DHT22;57639;52.410;-1.966;2022-07-29T17:18:25;22.30;58.80
61591;DHT22;57639;52.410;-1.966;2022-07-29T17:21:30;22.30;58.80
61591;DHT22;57639;52.410;-1.966;2022-07-29T17:24:38;22.30;58.80
61591;DHT22;57639;52.410;-1.966;2022-07-29T17:27:46;22.40;58.70
61591;DHT22;57639;52.410;-1.966;2022-07-29T17:30:54;22.40;58.50
61591;DHT22;57639;52.410;-1.966;2022-07-29T17:34:00;22.40;58.40
61591;DHT22;57639;52.410;-1.966;2022-07-29T17:37:10;22.40;58.20
61591;DHT22;57639;52.410;-1.966;2022-07-29T17:40:16;22.40;58.40
61591;DHT22;57639;52.410;-1.966;2022-07-29T17:43:26;22.30;58.20
61591;DHT22;57639;52.410;-1.966;2022-07-29T17:46:32;22.30;58.50
61591;DHT22;57639;52.410;-1.966;2022-07-29T17:49:39;22.30;58.60
61591;DHT22;57639;52.410;-1.966;2022-07-29T17:52:46;22.30;58.60
61591;DHT22;57639;52.410;-1.966;2022-07-29T17:55:53;22.40;58.50
61591;DHT22;57639;52.410;-1.966;2022-07-29T17:59:05;22.40;58.50
61591;DHT22;57639;52.410;-1.966;2022-07-29T18:02:13;22.40;58.60
61591;DHT22;57639;52.410;-1.966;2022-07-29T18:05:19;22.30;58.90
61591;DHT22;57639;52.410;-1.966;2022-07-29T18:08:27;22.40;59.30
61591;DHT22;57639;52.410;-1.966;2022-07-29T18:11:33;22.40;59.80
61591;DHT22;57639;52.410;-1.966;2022-07-29T18:14:44;22.40;60.10
61591;DHT22;57639;52.410;-1.966;2022-07-29T18:17:50;22.50;60.40
61591;DHT22;57639;52.410;-1.966;2022-07-29T18:21:01;22.60;60.60
61591;DHT22;57639;52.410;-1.966;2022-07-29T18:24:07;22.60;61.30
61591;DHT22;57639;52.410;-1.966;2022-07-29T18:27:15;22.70;62.00
61591;DHT22;57639;52.410;-1.966;2022-07-29T18:30:24;22.80;62.30
61591;DHT22;57639;52.410;-1.966;2022-07-29T18:33:32;22.90;62.70
61591;DHT22;57639;52.410;-1.966;2022-07-29T18:36:38;22.90;62.30
61591;DHT22;57639;52.410;-1.966;2022-07-29T18:39:45;23.00;62.20
61591;DHT22;57639;52.410;-1.966;2022-07-29T18:42:50;23.00;61.90
61591;DHT22;57639;52.410;-1.966;2022-07-29T18:46:01;23.00;61.70
61591;DHT22;57639;52.410;-1.966;2022-07-29T18:49:08;23.10;61.50
61591;DHT22;57639;52.410;-1.966;2022-07-29T18:52:16;23.10;61.30
61591;DHT22;57639;52.410;-1.966;2022-07-29T18:55:22;23.10;61.00
61591;DHT22;57639;52.410;-1.966;2022-07-29T18:58:29;23.10;61.00
61591;DHT22;57639;52.410;-1.966;2022-07-29T19:01:38;23.10;61.20
61591;DHT22;57639;52.410;-1.966;2022-07-29T19:04:46;23.10;60.90
61591;DHT22;57639;52.410;-1.966;2022-07-29T19:07:52;23.10;61.10
61591;DHT22;57639;52.410;-1.966;2022-07-29T19:11:00;23.10;61.20
61591;DHT22;57639;52.410;-1.966;2022-07-29T19:14:06;23.10;61.30
61591;DHT22;57639;52.410;-1.966;2022-07-29T19:17:16;23.10;61.50
61591;DHT22;57639;52.410;-1.966;2022-07-29T19:20:22;23.20;61.40
61591;DHT22;57639;52.410;-1.966;2022-07-29T19:23:29;23.20;61.20
61591;DHT22;57639;52.410;-1.966;2022-07-29T19:26:55;23.20;61.40
61591;DHT22;57639;52.410;-1.966;2022-07-29T19:30:05;23.10;61.30
61591;DHT22;57639;52.410;-1.966;2022-07-29T19:33:14;23.10;61.40
61591;DHT22;57639;52.410;-1.966;2022-07-29T19:36:22;23.10;61.40
61591;DHT22;57639;52.410;-1.966;2022-07-29T19:39:28;23.10;61.50
61591;DHT22;57639;52.410;-1.966;2022-07-29T19:42:38;23.20;61.40
61591;DHT22;57639;52.410;-1.966;2022-07-29T19:45:44;23.10;61.40